Time;durP1;ratioP1;P1;durP2;ratioP2;P2;SDS_P1;SDS_P2;PMS_P1;PMS_P2;Temp;Humidity;BMP_temperature;BMP_pressure;BME280_temperature;BME280_humidity;BME280_pressure;Samples;Min_cycle;Max_cycle;Signal;HPM_P1;HPM_P2
2022/01/27 00:01:52;;;;;;;49.75;20.58;;;;;;;;;;4994994;28;20049;-67
2022/01/27 00:04:25;;;;;;;49.25;20.83;;;;;;;;;;4995251;28;20058;-66
2022/01/27 00:06:52;;;;;;;53.97;21.88;;;;;;;;;;4995173;28;20070;-66
2022/01/27 00:09:25;;;;;;;51.40;20.17;;;;;;;;;;4994966;28;20412;-67
2022/01/27 00:11:52;;;;;;;50.03;22.17;;;;;;;;;;4995422;28;20439;-66
2022/01/27 00:14:21;;;;;;;55.95;22.25;;;;;;;;;;4995304;28;20046;-66
2022/01/27 00:16:58;;;;;;;53.85;22.38;;;;;;;;;;4995576;28;20499;-66
2022/01/27 00:19:26;;;;;;;54.63;20.65;;;;;;;;;;4995622;28;20543;-66
2022/01/27 00:21:53;;;;;;;51.78;21.88;;;;;;;;;;4994837;28;20201;-66
2022/01/27 00:24:21;;;;;;;60.80;22.80;;;;;;;;;;4995687;28;20137;-66
2022/01/27 00:26:48;;;;;;;52.90;22.02;;;;;;;;;;4994941;28;20046;-66
2022/01/27 00:29:15;;;;;;;58.53;21.25;;;;;;;;;;4994046;28;20553;-66
2022/01/27 00:31:42;;;;;;;52.08;21.45;;;;;;;;;;4994180;28;20100;-66
2022/01/27 00:34:09;;;;;;;54.58;20.30;;;;;;;;;;4994234;28;20053;-66
2022/01/27 00:36:37;;;;;;;57.25;22.20;;;;;;;;;;4994071;28;20072;-66
2022/01/27 00:39:04;;;;;;;45.60;20.83;;;;;;;;;;4993021;28;20056;-67
2022/01/27 00:41:31;;;;;;;57.47;21.45;;;;;;;;;;4993982;28;20064;-66
2022/01/27 00:43:58;;;;;;;57.95;23.17;;;;;;;;;;4993980;28;20484;-67
2022/01/27 00:46:25;;;;;;;52.47;21.45;;;;;;;;;;4993913;28;20046;-67
2022/01/27 00:48:52;;;;;;;50.10;22.17;;;;;;;;;;4993860;28;20244;-66
2022/01/27 00:51:27;;;;;;;49.00;21.83;;;;;;;;;;4993753;28;20050;-66
2022/01/27 00:54:04;;;;;;;54.85;21.58;;;;;;;;;;4993764;28;20054;-66
2022/01/27 00:56:32;;;;;;;44.33;18.35;;;;;;;;;;4993773;28;20582;-67
2022/01/27 00:59:16;;;;;;;49.08;20.45;;;;;;;;;;4993907;28;20393;-66
2022/01/27 01:01:49;;;;;;;51.50;19.50;;;;;;;;;;4993464;28;20519;-67
2022/01/27 01:04:24;;;;;;;52.53;20.35;;;;;;;;;;4993704;28;20101;-67
2022/01/27 01:06:51;;;;;;;55.28;20.15;;;;;;;;;;4993295;28;20093;-66
2022/01/27 01:15:08;;;;;;;57.80;21.80;;;;;;;;;;4993092;28;20100;-67
2022/01/27 01:17:42;;;;;;;50.22;21.73;;;;;;;;;;4993362;28;20058;-67
2022/01/27 01:20:26;;;;;;;53.58;20.48;;;;;;;;;;4993321;28;20092;-67
2022/01/27 01:31:30;;;;;;;50.53;19.83;;;;;;;;;;4993144;28;20089;-67
2022/01/27 01:34:10;;;;;;;49.05;20.52;;;;;;;;;;4993467;28;20062;-66
2022/01/27 01:36:44;;;;;;;57.08;22.20;;;;;;;;;;4992746;28;20058;-66
2022/01/27 01:39:12;;;;;;;54.42;21.20;;;;;;;;;;4992994;28;20085;-67
2022/01/27 01:41:41;;;;;;;54.70;22.17;;;;;;;;;;4992864;28;20509;-66
2022/01/27 01:44:08;;;;;;;57.42;21.80;;;;;;;;;;4993010;28;20571;-67
2022/01/27 01:46:35;;;;;;;49.90;21.30;;;;;;;;;;4992607;28;20097;-67
2022/01/27 01:49:02;;;;;;;51.55;22.35;;;;;;;;;;4992559;28;20061;-66
2022/01/27 01:51:32;;;;;;;57.10;23.08;;;;;;;;;;4992963;28;20053;-66
2022/01/27 01:53:59;;;;;;;51.97;21.42;;;;;;;;;;4993175;28;20420;-66
2022/01/27 01:56:26;;;;;;;52.40;21.90;;;;;;;;;;4992453;28;20046;-64
2022/01/27 01:58:55;;;;;;;51.05;22.25;;;;;;;;;;4992678;28;20057;-66
2022/01/27 02:01:22;;;;;;;53.85;21.70;;;;;;;;;;4993651;23;20406;-61
2022/01/27 02:03:50;;;;;;;50.70;22.27;;;;;;;;;;4973226;28;20134;-62
2022/01/27 02:06:23;;;;;;;50.55;20.80;;;;;;;;;;4973202;28;20050;-61
2022/01/27 02:09:08;;;;;;;56.15;23.90;;;;;;;;;;4972888;28;20050;-60
2022/01/27 02:19:53;;;;;;;51.03;21.02;;;;;;;;;;4972988;28;20058;-61
2022/01/27 02:22:21;;;;;;;49.00;22.75;;;;;;;;;;4972851;28;20051;-61
2022/01/27 02:24:50;;;;;;;49.05;22.23;;;;;;;;;;4973027;28;20047;-59
2022/01/27 02:27:18;;;;;;;48.03;20.90;;;;;;;;;;4972381;28;20062;-61
2022/01/27 02:29:46;;;;;;;50.65;21.48;;;;;;;;;;4972982;28;20054;-61
2022/01/27 02:32:15;;;;;;;51.83;23.27;;;;;;;;;;4972880;28;20066;-60
2022/01/27 02:34:42;;;;;;;51.22;20.85;;;;;;;;;;4972823;28;20538;-59
2022/01/27 02:37:11;;;;;;;53.05;23.52;;;;;;;;;;4972427;28;20053;-61
2022/01/27 02:39:39;;;;;;;49.50;20.80;;;;;;;;;;4972944;28;20126;-61
2022/01/27 02:42:12;;;;;;;55.08;22.48;;;;;;;;;;4972886;28;20046;-61
2022/01/27 02:44:52;;;;;;;58.67;23.88;;;;;;;;;;4972886;28;20125;-59
2022/01/27 02:47:20;;;;;;;59.75;26.15;;;;;;;;;;4972474;28;20051;-61
2022/01/27 02:49:47;;;;;;;55.35;23.38;;;;;;;;;;4972775;28;20061;-61
2022/01/27 02:52:16;;;;;;;55.08;22.63;;;;;;;;;;4972519;28;20444;-61
2022/01/27 02:54:43;;;;;;;54.70;22.85;;;;;;;;;;4972698;28;20047;-61
2022/01/27 02:57:11;;;;;;;51.33;24.25;;;;;;;;;;4972265;28;20058;-61
2022/01/27 02:59:38;;;;;;;55.30;23.42;;;;;;;;;;4972781;28;20050;-60
2022/01/27 03:02:05;;;;;;;56.30;24.13;;;;;;;;;;4974797;28;20415;-61
2022/01/27 03:04:34;;;;;;;47.97;21.92;;;;;;;;;;4976569;28;20055;-60
2022/01/27 03:07:04;;;;;;;55.78;22.52;;;;;;;;;;4975980;28;20054;-60
2022/01/27 03:09:33;;;;;;;55.13;23.73;;;;;;;;;;4976342;28;20051;-60
2022/01/27 03:12:02;;;;;;;56.15;23.27;;;;;;;;;;4976343;28;20284;-60
2022/01/27 03:14:29;;;;;;;56.55;23.27;;;;;;;;;;4976347;28;20068;-60
2022/01/27 03:16:59;;;;;;;57.00;23.45;;;;;;;;;;4976203;28;20050;-59
2022/01/27 03:19:26;;;;;;;62.75;25.30;;;;;;;;;;4976069;28;20102;-59
2022/01/27 03:21:54;;;;;;;51.45;22.73;;;;;;;;;;4976096;28;20538;-60
2022/01/27 03:24:21;;;;;;;53.35;22.38;;;;;;;;;;4976186;28;20500;-60
2022/01/27 03:26:50;;;;;;;51.50;22.80;;;;;;;;;;4975792;28;20062;-60
2022/01/27 03:29:18;;;;;;;52.47;23.33;;;;;;;;;;4976045;28;20137;-60
2022/01/27 03:31:46;;;;;;;55.15;22.05;;;;;;;;;;4976170;28;20149;-58
2022/01/27 03:34:13;;;;;;;52.80;23.02;;;;;;;;;;4975628;28;20051;-60
2022/01/27 03:36:40;;;;;;;48.60;22.67;;;;;;;;;;4975634;28;20051;-60
2022/01/27 03:39:08;;;;;;;56.95;23.92;;;;;;;;;;4975570;28;20550;-60
2022/01/27 03:41:38;;;;;;;54.47;24.23;;;;;;;;;;4975992;28;20047;-59
2022/01/27 03:44:07;;;;;;;51.20;22.38;;;;;;;;;;4975683;28;20142;-60
2022/01/27 03:46:34;;;;;;;50.83;22.40;;;;;;;;;;4975486;28;20051;-60
2022/01/27 03:49:01;;;;;;;59.25;23.98;;;;;;;;;;4975572;28;20055;-59
2022/01/27 03:51:28;;;;;;;55.92;23.88;;;;;;;;;;4975390;28;20055;-60
2022/01/27 03:53:55;;;;;;;53.15;23.58;;;;;;;;;;4975667;28;20061;-60
2022/01/27 03:56:22;;;;;;;52.70;21.60;;;;;;;;;;4975565;28;20050;-60
2022/01/27 03:58:49;;;;;;;53.33;22.60;;;;;;;;;;4975345;28;20043;-59
2022/01/27 04:01:18;;;;;;;57.17;24.13;;;;;;;;;;4975461;28;20051;-59
2022/01/27 04:03:45;;;;;;;54.17;22.80;;;;;;;;;;4975609;28;20154;-59
2022/01/27 04:06:19;;;;;;;55.85;24.35;;;;;;;;;;4975393;28;20057;-59
2022/01/27 04:08:46;;;;;;;53.97;23.73;;;;;;;;;;4975023;28;20145;-59
2022/01/27 04:11:13;;;;;;;49.78;21.77;;;;;;;;;;4975393;28;20047;-60
2022/01/27 04:13:40;;;;;;;56.08;23.90;;;;;;;;;;4975227;28;20061;-60
2022/01/27 04:16:07;;;;;;;51.30;22.83;;;;;;;;;;4975229;28;20109;-59
2022/01/27 04:18:36;;;;;;;55.78;23.20;;;;;;;;;;4974756;28;20047;-58
2022/01/27 04:21:03;;;;;;;56.88;23.45;;;;;;;;;;4975261;28;20407;-59
2022/01/27 04:23:30;;;;;;;60.90;24.33;;;;;;;;;;4975031;28;20514;-59
2022/01/27 04:25:57;;;;;;;56.50;23.65;;;;;;;;;;4975371;28;20082;-59
2022/01/27 04:28:28;;;;;;;55.35;23.05;;;;;;;;;;4974807;28;20046;-60
2022/01/27 04:30:57;;;;;;;61.58;25.63;;;;;;;;;;4974775;28;20061;-60
2022/01/27 04:33:28;;;;;;;57.72;25.52;;;;;;;;;;4974797;28;20047;-61
2022/01/27 04:35:59;;;;;;;58.75;24.02;;;;;;;;;;4975155;28;20456;-60
2022/01/27 04:38:31;;;;;;;56.83;22.30;;;;;;;;;;4974623;28;20062;-60
2022/01/27 04:41:07;;;;;;;59.13;24.50;;;;;;;;;;4974975;28;20066;-58
2022/01/27 04:43:40;;;;;;;56.90;23.02;;;;;;;;;;4974551;28;20134;-60
2022/01/27 04:46:19;;;;;;;57.65;23.77;;;;;;;;;;4974885;28;20464;-60
2022/01/27 04:48:50;;;;;;;51.42;23.02;;;;;;;;;;4974680;28;20065;-60
2022/01/27 04:51:21;;;;;;;53.35;23.55;;;;;;;;;;4974907;28;20058;-60
2022/01/27 04:53:54;;;;;;;62.22;23.73;;;;;;;;;;4974954;28;20125;-60
2022/01/27 04:56:22;;;;;;;56.58;23.08;;;;;;;;;;4974433;28;20151;-60
2022/01/27 04:58:53;;;;;;;57.28;26.02;;;;;;;;;;4974372;28;20061;-60
2022/01/27 05:01:25;;;;;;;53.92;24.40;;;;;;;;;;4974483;28;20086;-60
2022/01/27 05:03:57;;;;;;;61.35;25.88;;;;;;;;;;4974354;28;20059;-59
2022/01/27 05:06:26;;;;;;;53.53;24.20;;;;;;;;;;4974104;28;20047;-58
2022/01/27 05:08:53;;;;;;;50.13;23.08;;;;;;;;;;4974441;28;20138;-59
2022/01/27 05:11:25;;;;;;;55.30;20.98;;;;;;;;;;4974105;28;20105;-60
2022/01/27 05:13:56;;;;;;;56.70;25.17;;;;;;;;;;4974801;28;20170;-59
2022/01/27 05:16:22;;;;;;;52.35;22.88;;;;;;;;;;4974076;28;20105;-59
2022/01/27 05:18:50;;;;;;;49.67;22.15;;;;;;;;;;4973934;28;20047;-59
2022/01/27 05:21:17;;;;;;;52.58;22.65;;;;;;;;;;4974077;28;20057;-58
2022/01/27 05:23:45;;;;;;;50.40;23.75;;;;;;;;;;4973577;28;20050;-60
2022/01/27 05:26:12;;;;;;;53.38;23.10;;;;;;;;;;4973958;28;20093;-59
2022/01/27 05:28:39;;;;;;;50.78;21.45;;;;;;;;;;4974063;28;20055;-59
2022/01/27 05:31:06;;;;;;;46.90;23.75;;;;;;;;;;4974087;28;20051;-60
2022/01/27 05:33:34;;;;;;;46.78;22.88;;;;;;;;;;4974174;28;20058;-58
2022/01/27 05:36:01;;;;;;;54.40;22.65;;;;;;;;;;4973868;28;20053;-61
2022/01/27 05:38:28;;;;;;;48.28;21.58;;;;;;;;;;4973792;28;20090;-59
2022/01/27 05:40:57;;;;;;;43.80;21.40;;;;;;;;;;4973872;28;20141;-58
2022/01/27 05:43:24;;;;;;;47.05;22.60;;;;;;;;;;4973985;28;20054;-58
2022/01/27 05:45:51;;;;;;;46.00;20.60;;;;;;;;;;4974256;28;20072;-58
2022/01/27 05:48:18;;;;;;;44.45;21.00;;;;;;;;;;4974706;28;20412;-58
2022/01/27 05:50:45;;;;;;;42.75;21.40;;;;;;;;;;4974752;28;20142;-58
2022/01/27 05:53:12;;;;;;;45.72;23.25;;;;;;;;;;4974807;28;20134;-59
2022/01/27 05:55:39;;;;;;;44.03;22.02;;;;;;;;;;4974761;28;20055;-60
2022/01/27 05:58:07;;;;;;;44.05;21.92;;;;;;;;;;4974420;28;20467;-59
2022/01/27 06:00:35;;;;;;;45.22;21.25;;;;;;;;;;4974420;28;20141;-60
2022/01/27 06:03:03;;;;;;;43.25;21.35;;;;;;;;;;4974260;28;20055;-59
2022/01/27 06:05:30;;;;;;;40.78;19.77;;;;;;;;;;4975060;28;20054;-61
2022/01/27 06:07:57;;;;;;;45.63;21.48;;;;;;;;;;4974895;28;20055;-59
2022/01/27 06:10:24;;;;;;;39.83;20.48;;;;;;;;;;4974037;28;20500;-57
2022/01/27 06:12:54;;;;;;;40.20;21.02;;;;;;;;;;4973853;28;20112;-59
2022/01/27 06:15:22;;;;;;;47.78;22.50;;;;;;;;;;4973761;28;20479;-58
2022/01/27 06:17:49;;;;;;;39.67;20.42;;;;;;;;;;4973399;28;20494;-59
2022/01/27 06:20:17;;;;;;;42.67;20.80;;;;;;;;;;4973625;28;20415;-59
2022/01/27 06:22:44;;;;;;;37.58;19.63;;;;;;;;;;4973704;28;20058;-58
2022/01/27 06:25:13;;;;;;;42.05;19.67;;;;;;;;;;4973579;28;20057;-57
2022/01/27 06:27:40;;;;;;;44.13;21.98;;;;;;;;;;4972942;28;20101;-59
2022/01/27 06:30:10;;;;;;;42.13;20.55;;;;;;;;;;4973508;28;20082;-59
2022/01/27 06:32:39;;;;;;;42.50;20.38;;;;;;;;;;4973529;28;20504;-59
2022/01/27 06:35:07;;;;;;;38.03;19.98;;;;;;;;;;4973762;28;20046;-60
2022/01/27 06:37:35;;;;;;;38.40;18.75;;;;;;;;;;4977042;28;20145;-60
2022/01/27 06:40:04;;;;;;;36.10;19.15;;;;;;;;;;4978017;28;20555;-60
2022/01/27 06:42:31;;;;;;;41.47;21.10;;;;;;;;;;4977701;28;20053;-58
2022/01/27 06:44:58;;;;;;;40.35;19.80;;;;;;;;;;4977110;28;20051;-59
2022/01/27 06:47:25;;;;;;;40.10;20.02;;;;;;;;;;4976715;28;20050;-59
2022/01/27 06:49:53;;;;;;;37.05;18.70;;;;;;;;;;4977026;28;20415;-59
2022/01/27 06:52:22;;;;;;;41.05;20.70;;;;;;;;;;4976807;28;20054;-59
2022/01/27 06:54:50;;;;;;;39.42;19.38;;;;;;;;;;4976996;28;20065;-60
2022/01/27 06:57:17;;;;;;;33.70;18.90;;;;;;;;;;4976598;28;20051;-59
2022/01/27 06:59:44;;;;;;;33.97;18.45;;;;;;;;;;4976892;28;20086;-58
2022/01/27 07:02:11;;;;;;;39.35;20.55;;;;;;;;;;4977288;28;20046;-59
2022/01/27 07:04:38;;;;;;;41.75;19.60;;;;;;;;;;4977204;28;20556;-60
2022/01/27 07:07:07;;;;;;;36.33;19.52;;;;;;;;;;4976515;28;20101;-59
2022/01/27 07:09:34;;;;;;;39.20;20.45;;;;;;;;;;4977208;28;20050;-58
2022/01/27 07:12:01;;;;;;;39.83;19.98;;;;;;;;;;4977078;28;20049;-60
2022/01/27 07:14:30;;;;;;;38.20;19.65;;;;;;;;;;4976711;28;20149;-60
2022/01/27 07:16:57;;;;;;;35.13;17.52;;;;;;;;;;4976388;28;20058;-57
2022/01/27 07:19:24;;;;;;;36.50;19.77;;;;;;;;;;4977028;28;20066;-60
2022/01/27 07:21:51;;;;;;;35.95;18.83;;;;;;;;;;4976416;28;20051;-58
2022/01/27 07:24:20;;;;;;;31.63;17.60;;;;;;;;;;4976523;28;20047;-60
2022/01/27 07:26:47;;;;;;;35.92;18.75;;;;;;;;;;4976174;28;20078;-59
2022/01/27 07:29:14;;;;;;;31.38;17.80;;;;;;;;;;4976221;28;20130;-57
2022/01/27 07:31:44;;;;;;;33.95;17.42;;;;;;;;;;4976579;28;20050;-61
2022/01/27 07:34:11;;;;;;;35.10;18.42;;;;;;;;;;4977063;28;20117;-56
2022/01/27 07:36:40;;;;;;;32.95;18.48;;;;;;;;;;4976950;28;20051;-57
2022/01/27 07:39:14;;;;;;;34.03;17.75;;;;;;;;;;4976384;28;20050;-60
2022/01/27 07:41:44;;;;;;;32.70;17.52;;;;;;;;;;4976252;28;20542;-59
2022/01/27 07:44:12;;;;;;;30.58;17.45;;;;;;;;;;4976091;28;20053;-61
2022/01/27 07:46:39;;;;;;;33.50;17.58;;;;;;;;;;4975364;28;20090;-60
2022/01/27 07:49:07;;;;;;;28.23;16.65;;;;;;;;;;4975821;28;20473;-60
2022/01/27 07:51:34;;;;;;;31.25;17.35;;;;;;;;;;4975951;28;20051;-60
2022/01/27 07:54:01;;;;;;;31.23;16.92;;;;;;;;;;4976198;28;20054;-60
2022/01/27 07:56:28;;;;;;;30.27;16.30;;;;;;;;;;4976116;28;20093;-62
2022/01/27 07:58:57;;;;;;;31.58;16.85;;;;;;;;;;4975576;28;20411;-59
2022/01/27 08:01:24;;;;;;;30.25;17.02;;;;;;;;;;4975373;28;20137;-56
2022/01/27 08:03:51;;;;;;;27.77;17.42;;;;;;;;;;4999492;23;20074;-82
2022/01/27 08:06:18;;;;;;;30.13;16.20;;;;;;;;;;4982585;28;20114;-81
2022/01/27 08:08:45;;;;;;;25.75;15.77;;;;;;;;;;4981705;28;20114;-83
2022/01/27 08:11:12;;;;;;;27.38;15.18;;;;;;;;;;4976156;28;20501;-81
2022/01/27 08:13:39;;;;;;;25.75;14.38;;;;;;;;;;4990310;28;20053;-82
2022/01/27 08:16:07;;;;;;;27.30;14.73;;;;;;;;;;4998636;28;20054;-82
2022/01/27 08:18:34;;;;;;;29.73;14.88;;;;;;;;;;4996674;28;20488;-82
2022/01/27 08:21:01;;;;;;;25.05;12.90;;;;;;;;;;4997706;28;20058;-82
2022/01/27 08:23:28;;;;;;;28.80;14.95;;;;;;;;;;4997832;28;20057;-83
2022/01/27 08:26:03;;;;;;;24.67;13.70;;;;;;;;;;4997116;28;20050;-82
2022/01/27 08:28:35;;;;;;;24.00;13.10;;;;;;;;;;4996683;28;20051;-83
2022/01/27 08:31:03;;;;;;;21.75;11.63;;;;;;;;;;4996906;28;20047;-83
2022/01/27 08:33:32;;;;;;;21.38;11.38;;;;;;;;;;4997081;28;20065;-83
2022/01/27 08:36:00;;;;;;;21.98;12.77;;;;;;;;;;4989284;28;20053;-82
2022/01/27 08:38:27;;;;;;;21.30;11.40;;;;;;;;;;4973627;28;20050;-83
2022/01/27 08:40:54;;;;;;;19.50;11.60;;;;;;;;;;4969899;28;20129;-82
2022/01/27 08:43:21;;;;;;;22.25;11.90;;;;;;;;;;4973114;28;20569;-83
2022/01/27 08:45:50;;;;;;;20.25;10.98;;;;;;;;;;4959455;28;20110;-83
2022/01/27 08:48:19;;;;;;;24.35;12.90;;;;;;;;;;4958423;28;20083;-83
2022/01/27 08:50:53;;;;;;;21.85;12.27;;;;;;;;;;4958246;28;20078;-83
2022/01/27 08:53:19;;;;;;;22.40;11.93;;;;;;;;;;4958870;28;20111;-83
2022/01/27 08:55:47;;;;;;;21.77;12.43;;;;;;;;;;4958884;28;20565;-83
2022/01/27 08:58:14;;;;;;;22.08;12.63;;;;;;;;;;4962137;28;20110;-82
2022/01/27 09:00:41;;;;;;;26.80;15.55;;;;;;;;;;4981441;28;20446;-82
2022/01/27 09:03:08;;;;;;;21.77;12.35;;;;;;;;;;4966195;28;20162;-82
2022/01/27 09:05:36;;;;;;;23.58;12.15;;;;;;;;;;4970805;28;20106;-80
2022/01/27 09:08:04;;;;;;;21.83;11.15;;;;;;;;;;4984058;28;20130;-81
2022/01/27 09:10:32;;;;;;;20.52;11.77;;;;;;;;;;4985549;28;20042;-81
2022/01/27 09:13:00;;;;;;;19.45;10.70;;;;;;;;;;4981195;28;20126;-84
2022/01/27 09:15:27;;;;;;;19.00;10.88;;;;;;;;;;4972103;28;20067;-83
2022/01/27 09:17:56;;;;;;;24.23;11.73;;;;;;;;;;4969694;28;20445;-83
2022/01/27 09:20:24;;;;;;;20.77;11.23;;;;;;;;;;4966539;28;20090;-82
2022/01/27 09:22:53;;;;;;;18.85;10.77;;;;;;;;;;4960114;28;20170;-82
2022/01/27 09:25:25;;;;;;;17.50;10.20;;;;;;;;;;4968727;28;20042;-83
2022/01/27 09:27:52;;;;;;;19.83;10.38;;;;;;;;;;4967674;28;20051;-83
2022/01/27 09:30:19;;;;;;;16.70;10.20;;;;;;;;;;4965443;28;20043;-82
2022/01/27 09:32:48;;;;;;;17.83;11.02;;;;;;;;;;4958294;28;20059;-83
2022/01/27 09:35:15;;;;;;;17.08;9.40;;;;;;;;;;4967911;28;20514;-83
2022/01/27 09:37:42;;;;;;;20.60;10.18;;;;;;;;;;4962195;28;20102;-82
2022/01/27 09:40:11;;;;;;;17.27;9.95;;;;;;;;;;4957366;28;20055;-82
2022/01/27 09:42:39;;;;;;;18.10;9.57;;;;;;;;;;4956964;28;20454;-85
2022/01/27 09:45:08;;;;;;;16.85;9.55;;;;;;;;;;4960697;28;20040;-83
2022/01/27 09:47:39;;;;;;;16.92;9.85;;;;;;;;;;4957261;28;20078;-83
2022/01/27 09:50:19;;;;;;;15.98;9.20;;;;;;;;;;4957908;28;20134;-80
2022/01/27 09:52:47;;;;;;;18.08;10.05;;;;;;;;;;4958466;28;20058;-80
2022/01/27 09:55:15;;;;;;;15.50;8.52;;;;;;;;;;4958808;28;20488;-86
2022/01/27 09:57:45;;;;;;;13.45;7.65;;;;;;;;;;4962196;28;20050;-81
2022/01/27 10:00:14;;;;;;;12.68;7.47;;;;;;;;;;4962000;28;20051;-81
2022/01/27 10:02:41;;;;;;;12.77;7.10;;;;;;;;;;4961720;28;20055;-81
2022/01/27 10:05:08;;;;;;;18.65;7.38;;;;;;;;;;4962185;28;20050;-81
2022/01/27 10:07:40;;;;;;;16.30;7.85;;;;;;;;;;4961869;28;20130;-81
2022/01/27 10:10:10;;;;;;;14.15;6.43;;;;;;;;;;4960991;28;20066;-81
2022/01/27 10:12:41;;;;;;;10.60;5.25;;;;;;;;;;4961406;28;20070;-81
2022/01/27 10:15:13;;;;;;;9.38;4.53;;;;;;;;;;4961438;28;20442;-80
2022/01/27 10:18:00;;;;;;;8.82;4.57;;;;;;;;;;4959716;28;20129;-80
2022/01/27 10:20:28;;;;;;;11.02;5.03;;;;;;;;;;4963065;28;20047;-80
2022/01/27 10:23:16;;;;;;;10.48;5.10;;;;;;;;;;4961881;28;20055;-80
2022/01/27 10:25:49;;;;;;;8.25;4.25;;;;;;;;;;4961824;28;20051;-80
2022/01/27 10:28:29;;;;;;;5.53;2.97;;;;;;;;;;4961106;28;20067;-80
2022/01/27 10:31:04;;;;;;;7.28;3.80;;;;;;;;;;4962319;28;20162;-80
2022/01/27 10:33:50;;;;;;;6.68;3.50;;;;;;;;;;4962740;28;20043;-80
2022/01/27 10:36:21;;;;;;;7.75;3.30;;;;;;;;;;4962597;28;20055;-80
2022/01/27 10:38:50;;;;;;;;;;;;;;;;;;4962257;28;20055;-81
2022/01/27 10:41:16;;;;;;;9.70;3.92;;;;;;;;;;4961582;28;19926;-80
2022/01/27 10:43:45;;;;;;;6.55;3.65;;;;;;;;;;4961164;28;20051;-80
2022/01/27 10:46:20;;;;;;;7.55;3.38;;;;;;;;;;4959615;28;20052;-81
2022/01/27 10:48:52;;;;;;;6.35;3.00;;;;;;;;;;4961923;28;20494;-82
2022/01/27 10:51:25;;;;;;;5.85;2.65;;;;;;;;;;4960445;28;20118;-80
2022/01/27 10:53:59;;;;;;;6.13;2.45;;;;;;;;;;4961129;28;20058;-81
2022/01/27 10:56:28;;;;;;;7.35;2.95;;;;;;;;;;4962465;28;20126;-82
2022/01/27 10:58:57;;;;;;;6.28;3.00;;;;;;;;;;4962323;28;20051;-80
2022/01/27 11:01:32;;;;;;;7.50;3.30;;;;;;;;;;4962931;28;20047;-81
2022/01/27 11:04:01;;;;;;;6.50;2.65;;;;;;;;;;4959430;28;20087;-83
2022/01/27 11:06:34;;;;;;;6.43;3.17;;;;;;;;;;4958945;28;20052;-82
2022/01/27 11:09:08;;;;;;;6.85;3.10;;;;;;;;;;4958793;28;20466;-85
2022/01/27 11:11:38;;;;;;;7.13;3.17;;;;;;;;;;4959698;28;20059;-84
2022/01/27 11:14:06;;;;;;;7.35;3.47;;;;;;;;;;4963232;28;20050;-83
2022/01/27 11:16:40;;;;;;;9.10;3.92;;;;;;;;;;4967041;28;20047;-86
2022/01/27 11:19:52;;;;;;;8.50;3.88;;;;;;;;;;4974126;28;20223;-90
2022/01/27 11:25:49;;;;;;;7.47;3.33;;;;;;;;;;4958712;29;20447;-83
2022/01/27 11:28:00;;;;;;;9.20;4.30;;;;;;;;;;4965104;29;20633;-83
2022/01/27 11:30:34;;;;;;;7.78;3.95;;;;;;;;;;4962809;28;20051;-83
2022/01/27 11:33:04;;;;;;;5.90;3.25;;;;;;;;;;4962747;28;20048;-83
2022/01/27 11:35:31;;;;;;;5.10;2.88;;;;;;;;;;4962530;28;20079;-83
2022/01/27 11:38:03;;;;;;;5.75;2.97;;;;;;;;;;4961993;28;20047;-83
2022/01/27 11:40:36;;;;;;;6.43;3.58;;;;;;;;;;4964105;28;20055;-82
2022/01/27 11:43:12;;;;;;;6.90;3.17;;;;;;;;;;4963467;28;20047;-83
2022/01/27 11:45:42;;;;;;;7.68;3.50;;;;;;;;;;4962627;28;20047;-82
2022/01/27 11:48:12;;;;;;;9.85;3.75;;;;;;;;;;4960620;28;20106;-82
2022/01/27 11:50:49;;;;;;;8.48;4.20;;;;;;;;;;4960515;28;20051;-83
2022/01/27 11:53:34;;;;;;;7.82;3.53;;;;;;;;;;4961570;28;20117;-82
2022/01/27 11:56:03;;;;;;;10.23;4.78;;;;;;;;;;4960172;28;20055;-82
2022/01/27 11:58:31;;;;;;;10.27;4.53;;;;;;;;;;4960689;28;20047;-82
2022/01/27 12:01:17;;;;;;;8.65;4.90;;;;;;;;;;4973764;28;20051;-85
2022/01/27 12:04:17;;;;;;;8.43;3.78;;;;;;;;;;4979143;28;20031;-82
2022/01/27 12:07:08;;;;;;;12.07;4.43;;;;;;;;;;4976762;28;20262;-84
2022/01/27 12:09:37;;;;;;;;;;;;;;;;;;4969667;28;20044;-83
2022/01/27 12:12:11;;;;;;;8.20;4.00;;;;;;;;;;4966603;28;20361;-83
2022/01/27 12:15:03;;;;;;;8.38;4.32;;;;;;;;;;4968246;28;20116;-82
2022/01/27 12:17:34;;;;;;;11.02;5.63;;;;;;;;;;4965633;28;20047;-83
2022/01/27 12:20:05;;;;;;;11.98;5.78;;;;;;;;;;4968425;28;20110;-83
2022/01/27 12:23:08;;;;;;;10.55;5.90;;;;;;;;;;4968441;28;20063;-84
2022/01/27 12:25:54;;;;;;;11.18;5.80;;;;;;;;;;4972864;28;20047;-87
2022/01/27 12:28:21;;;;;;;13.27;7.30;;;;;;;;;;4965732;28;20082;-86
2022/01/27 12:31:01;;;;;;;11.27;7.05;;;;;;;;;;4964737;28;20047;-87
2022/01/27 12:33:28;;;;;;;14.25;7.63;;;;;;;;;;4962902;28;20051;-87
2022/01/27 12:35:56;;;;;;;11.80;6.15;;;;;;;;;;4962703;28;20058;-86
2022/01/27 12:38:23;;;;;;;11.57;6.50;;;;;;;;;;4958680;28;20055;-85
2022/01/27 12:40:58;;;;;;;14.77;7.75;;;;;;;;;;4956002;28;20047;-85
2022/01/27 12:43:25;;;;;;;13.65;7.43;;;;;;;;;;4956526;28;20047;-85
2022/01/27 12:45:51;;;;;;;14.73;7.75;;;;;;;;;;4956182;28;20055;-85
2022/01/27 12:48:24;;;;;;;13.02;7.18;;;;;;;;;;4964210;28;20054;-85
2022/01/27 12:50:58;;;;;;;13.85;7.45;;;;;;;;;;4975067;28;20105;-85
2022/01/27 12:53:27;;;;;;;15.35;7.30;;;;;;;;;;4976838;28;20688;-85
2022/01/27 12:55:54;;;;;;;13.95;7.53;;;;;;;;;;4997986;28;20146;-85
2022/01/27 12:58:22;;;;;;;13.55;7.47;;;;;;;;;;4997084;28;20050;-85
2022/01/27 13:00:50;;;;;;;13.13;7.35;;;;;;;;;;4995453;28;20062;-85
2022/01/27 13:03:18;;;;;;;13.48;7.10;;;;;;;;;;4995248;28;20056;-85
2022/01/27 13:05:49;;;;;;;14.48;8.20;;;;;;;;;;4994062;28;20502;-85
2022/01/27 13:08:18;;;;;;;15.80;8.18;;;;;;;;;;5000552;28;20046;-85
2022/01/27 13:10:48;;;;;;;14.90;8.80;;;;;;;;;;5002667;28;20054;-85
2022/01/27 13:13:20;;;;;;;15.52;9.02;;;;;;;;;;5007140;28;20062;-85
2022/01/27 13:15:56;;;;;;;17.10;9.38;;;;;;;;;;5008868;28;20103;-86
2022/01/27 13:18:29;;;;;;;18.73;9.05;;;;;;;;;;5007443;28;20061;-86
2022/01/27 13:20:58;;;;;;;15.65;9.27;;;;;;;;;;5002694;28;20114;-85
2022/01/27 13:23:30;;;;;;;18.00;8.70;;;;;;;;;;5006135;28;20186;-86
2022/01/27 13:26:00;;;;;;;16.75;9.27;;;;;;;;;;4997697;28;20093;-86
2022/01/27 13:28:29;;;;;;;17.00;9.18;;;;;;;;;;4997285;28;20182;-86
2022/01/27 13:31:01;;;;;;;17.85;9.82;;;;;;;;;;4996913;28;20053;-86
2022/01/27 13:33:35;;;;;;;17.63;10.07;;;;;;;;;;4996312;28;20057;-87
2022/01/27 13:36:06;;;;;;;19.92;10.75;;;;;;;;;;4995746;28;20137;-87
2022/01/27 13:38:39;;;;;;;18.00;10.35;;;;;;;;;;5000627;28;20108;-86
2022/01/27 13:41:23;;;;;;;18.13;10.10;;;;;;;;;;5003824;28;20056;-87
2022/01/27 13:43:55;;;;;;;19.40;10.15;;;;;;;;;;5001830;28;20050;-86
2022/01/27 13:46:38;;;;;;;16.40;9.60;;;;;;;;;;5001662;28;20065;-86
2022/01/27 13:49:06;;;;;;;17.80;9.40;;;;;;;;;;5002527;28;20137;-86
2022/01/27 13:51:34;;;;;;;16.73;9.43;;;;;;;;;;5001189;28;20050;-85
2022/01/27 13:54:02;;;;;;;17.35;9.38;;;;;;;;;;4996186;28;20046;-84
2022/01/27 13:56:43;;;;;;;19.90;10.13;;;;;;;;;;4994138;28;20058;-84
2022/01/27 13:59:15;;;;;;;;;;;;;;;;;;4996221;28;20064;-84
2022/01/27 14:01:45;;;;;;;20.75;9.52;;;;;;;;;;4997917;28;19921;-85
2022/01/27 14:04:12;;;;;;;17.85;10.77;;;;;;;;;;4991773;23;20050;-80
2022/01/27 14:06:50;;;;;;;20.98;10.43;;;;;;;;;;4974928;28;20046;-79
2022/01/27 14:09:18;;;;;;;18.65;10.07;;;;;;;;;;4976008;28;20118;-77
2022/01/27 14:11:45;;;;;;;16.30;9.75;;;;;;;;;;4976332;28;20054;-80
2022/01/27 14:14:12;;;;;;;19.85;10.00;;;;;;;;;;4977004;28;20047;-80
2022/01/27 14:16:41;;;;;;;17.67;10.07;;;;;;;;;;4974945;28;20689;-78
2022/01/27 14:19:14;;;;;;;20.73;10.38;;;;;;;;;;4975891;28;20046;-78
2022/01/27 14:21:43;;;;;;;18.58;10.38;;;;;;;;;;4975995;28;20053;-78
2022/01/27 14:24:12;;;;;;;20.75;11.20;;;;;;;;;;4975776;28;20059;-78
2022/01/27 14:26:41;;;;;;;20.48;10.93;;;;;;;;;;4974176;28;20046;-78
2022/01/27 14:29:10;;;;;;;20.25;10.68;;;;;;;;;;4976286;28;20058;-79
2022/01/27 14:31:38;;;;;;;23.38;11.68;;;;;;;;;;4977454;28;20050;-78
2022/01/27 14:34:05;;;;;;;25.10;11.88;;;;;;;;;;4984863;28;20690;-79
2022/01/27 14:36:40;;;;;;;22.95;11.52;;;;;;;;;;4986714;28;20050;-79
2022/01/27 14:39:08;;;;;;;20.85;10.45;;;;;;;;;;4979703;28;20084;-80
2022/01/27 14:41:35;;;;;;;23.45;11.50;;;;;;;;;;4977397;28;20042;-79
2022/01/27 14:44:02;;;;;;;20.85;10.63;;;;;;;;;;4975579;28;20113;-78
2022/01/27 14:46:36;;;;;;;24.73;11.00;;;;;;;;;;4975823;28;20055;-79
2022/01/27 14:49:06;;;;;;;22.38;10.50;;;;;;;;;;4975569;28;20051;-79
2022/01/27 14:51:35;;;;;;;22.73;10.32;;;;;;;;;;4975654;28;20060;-77
2022/01/27 14:54:02;;;;;;;22.35;10.70;;;;;;;;;;4976013;28;20109;-78
2022/01/27 14:56:29;;;;;;;24.13;11.15;;;;;;;;;;4975769;28;20051;-79
2022/01/27 14:58:56;;;;;;;19.67;10.30;;;;;;;;;;4983847;28;20046;-79
2022/01/27 15:01:24;;;;;;;19.95;10.52;;;;;;;;;;4983572;28;20061;-79
2022/01/27 15:03:51;;;;;;;21.67;11.23;;;;;;;;;;4983454;28;20051;-80
2022/01/27 15:06:18;;;;;;;21.77;11.32;;;;;;;;;;4984265;28;20047;-79